Time;durP1;ratioP1;P1;durP2;ratioP2;P2;SDS_P1;SDS_P2;PMS_P1;PMS_P2;Temp;Humidity;BMP_temperature;BMP_pressure;BME280_temperature;BME280_humidity;BME280_pressure;Samples;Min_cycle;Max_cycle;Signal;HPM_P1;HPM_P2
2022/11/21 00:00:21;;;;;;;7.18;2.97;;;8.70;99.90;;;;;;4996948;28;20189;-82
2022/11/21 00:02:47;;;;;;;5.18;2.00;;;8.60;99.90;;;;;;4996962;28;20165;-84
2022/11/21 00:05:13;;;;;;;8.10;2.03;;;8.50;99.90;;;;;;4997237;28;20630;-83
2022/11/21 00:07:38;;;;;;;6.82;2.78;;;8.50;99.90;;;;;;4995690;28;20204;-83
2022/11/21 00:10:04;;;;;;;4.82;2.20;;;8.60;99.90;;;;;;4996733;28;20563;-84
2022/11/21 00:12:30;;;;;;;11.40;2.55;;;8.70;99.90;;;;;;4995821;28;20174;-82
2022/11/21 00:14:55;;;;;;;11.40;2.53;;;8.90;99.90;;;;;;4996386;28;20173;-85
2022/11/21 00:17:21;;;;;;;10.95;2.00;;;8.90;99.90;;;;;;4996574;28;20532;-83
2022/11/21 00:19:47;;;;;;;13.52;3.35;;;8.90;99.90;;;;;;4996574;28;20190;-85
2022/11/21 00:22:12;;;;;;;6.60;2.17;;;9.00;99.90;;;;;;4996764;28;20252;-81
2022/11/21 00:24:38;;;;;;;6.55;2.25;;;9.00;99.90;;;;;;4996457;28;20529;-82
2022/11/21 00:27:04;;;;;;;8.10;3.00;;;9.10;99.90;;;;;;4996423;28;20541;-81
2022/11/21 00:29:30;;;;;;;8.07;2.92;;;9.00;99.90;;;;;;5016501;23;20212;-78
2022/11/21 00:31:58;;;;;;;8.75;3.25;;;9.20;99.90;;;;;;5027200;28;20188;-86
2022/11/21 00:34:24;;;;;;;4.30;2.60;;;9.20;99.90;;;;;;5028926;28;20215;-81
2022/11/21 00:36:49;;;;;;;7.07;3.25;;;9.20;99.90;;;;;;5022729;28;20168;-77
2022/11/21 00:39:15;;;;;;;8.85;2.88;;;9.30;99.90;;;;;;5026277;28;20180;-78
2022/11/21 00:41:42;;;;;;;10.57;3.42;;;9.30;99.90;;;;;;5028892;28;20251;-85
2022/11/21 00:44:09;;;;;;;12.20;2.85;;;9.20;99.90;;;;;;5030414;28;20175;-96
2022/11/21 00:46:35;;;;;;;5.90;2.13;;;9.10;99.90;;;;;;5027484;28;20191;-94
2022/11/21 00:49:01;;;;;;;7.53;2.60;;;9.00;99.90;;;;;;5029909;28;20180;-85
2022/11/21 00:51:26;;;;;;;7.03;2.53;;;9.10;99.90;;;;;;5029342;28;20271;-90
2022/11/21 00:53:52;;;;;;;11.25;2.75;;;9.10;99.90;;;;;;5033453;28;20184;-88
2022/11/21 00:56:17;;;;;;;7.22;2.25;;;9.20;99.90;;;;;;5033701;28;20216;-81
2022/11/21 00:58:48;;;;;;;3.58;2.30;;;9.10;99.90;;;;;;5034994;28;20274;-78
2022/11/21 01:01:14;;;;;;;7.88;2.67;;;9.00;99.90;;;;;;5032781;28;20191;-85
2022/11/21 01:04:15;;;;;;;6.13;2.55;;;9.00;99.90;;;;;;5036508;28;20183;-88
2022/11/21 01:06:40;;;;;;;9.68;2.70;;;9.00;99.90;;;;;;5036502;28;20141;-85
2022/11/21 01:09:06;;;;;;;10.13;2.45;;;8.80;99.90;;;;;;5037063;28;20208;-91
2022/11/21 01:11:49;;;;;;;7.45;2.40;;;9.00;99.90;;;;;;5037227;28;20153;-81
2022/11/21 01:14:15;;;;;;;9.25;2.38;;;9.00;99.90;;;;;;5035672;28;20215;-82
2022/11/21 01:17:02;;;;;;;12.43;2.83;;;9.00;99.90;;;;;;5035673;28;20184;-79
2022/11/21 01:19:28;;;;;;;7.75;2.10;;;8.90;99.90;;;;;;5035615;28;20179;-79
2022/11/21 01:22:02;;;;;;;6.13;1.80;;;8.70;99.90;;;;;;5033584;28;20157;-94
2022/11/21 01:24:31;;;;;;;8.75;2.13;;;8.60;99.90;;;;;;5034608;28;20176;-94
2022/11/21 01:26:57;;;;;;;7.00;2.35;;;8.60;99.90;;;;;;5030611;28;20183;-96
2022/11/21 01:29:24;;;;;;;9.52;2.67;;;8.60;99.90;;;;;;5036498;28;20192;-86
2022/11/21 01:31:49;;;;;;;12.15;2.05;;;8.70;99.90;;;;;;5032621;28;20173;-92
2022/11/21 01:34:23;;;;;;;5.40;2.40;;;8.50;99.90;;;;;;5033409;28;20203;-84
2022/11/21 01:36:51;;;;;;;7.80;2.58;;;8.50;99.90;;;;;;5036982;28;20153;-76
2022/11/21 01:39:18;;;;;;;9.73;2.30;;;8.50;99.90;;;;;;5037054;28;20184;-79
2022/11/21 01:41:50;;;;;;;10.35;2.17;;;8.50;99.90;;;;;;5035164;28;20160;-82
2022/11/21 01:44:26;;;;;;;7.47;2.30;;;8.50;99.90;;;;;;5031220;28;20149;-78
2022/11/21 01:46:52;;;;;;;7.32;2.78;;;8.60;99.90;;;;;;5027640;28;20195;-81
2022/11/21 01:49:26;;;;;;;5.13;2.40;;;8.70;99.90;;;;;;5028528;28;20636;-86
2022/11/21 01:52:05;;;;;;;1.67;1.45;;;8.50;99.90;;;;;;5024870;28;20161;-93
2022/11/21 01:54:55;;;;;;;5.82;2.22;;;8.60;99.90;;;;;;5025172;28;20589;-92
2022/11/21 01:57:34;;;;;;;7.20;1.92;;;8.70;99.90;;;;;;5025666;28;20169;-85
2022/11/21 02:00:07;;;;;;;5.00;1.52;;;8.80;99.90;;;;;;5024551;28;20184;-78
2022/11/21 02:02:43;;;;;;;5.38;1.33;;;8.60;99.90;;;;;;5031972;28;20233;-80
2022/11/21 02:05:22;;;;;;;7.55;2.92;;;8.70;99.90;;;;;;5034938;28;20164;-86
2022/11/21 02:07:51;;;;;;;7.40;2.13;;;8.90;99.90;;;;;;5035906;28;20148;-79
2022/11/21 02:10:18;;;;;;;9.18;2.05;;;8.90;99.90;;;;;;5016598;28;20215;-79
2022/11/21 02:12:50;;;;;;;20.23;2.33;;;8.90;99.90;;;;;;5032594;28;20173;-82
2022/11/21 02:15:32;;;;;;;2.65;1.52;;;8.80;99.90;;;;;;5032065;28;20272;-78
2022/11/21 02:17:57;;;;;;;2.00;1.50;;;8.90;99.90;;;;;;5030247;28;20165;-81
2022/11/21 02:20:25;;;;;;;9.45;1.63;;;9.20;99.90;;;;;;5030416;28;20219;-92
2022/11/21 02:22:58;;;;;;;11.07;2.10;;;9.30;99.90;;;;;;5030480;28;20172;-85
2022/11/21 02:25:28;;;;;;;3.50;1.40;;;9.30;99.90;;;;;;5028665;28;20172;-91
2022/11/21 02:28:14;;;;;;;6.00;1.40;;;9.40;99.90;;;;;;5029662;28;20173;-90
2022/11/21 02:30:45;;;;;;;10.43;2.13;;;9.20;99.90;;;;;;5029882;28;20307;-82
2022/11/21 02:33:12;;;;;;;7.82;1.75;;;9.30;99.90;;;;;;5031058;28;20165;-78
2022/11/21 02:35:38;;;;;;;2.70;1.65;;;9.10;99.90;;;;;;5034994;28;20168;-83
2022/11/21 02:38:22;;;;;;;6.88;2.03;;;9.20;99.90;;;;;;5018651;28;20176;-77
2022/11/21 02:41:30;;;;;;;2.83;1.85;;;9.10;99.90;;;;;;5034820;28;20164;-82
2022/11/21 02:44:05;;;;;;;8.60;1.77;;;8.80;99.90;;;;;;5031893;28;20198;-96
2022/11/21 02:46:44;;;;;;;9.68;2.28;;;8.80;99.90;;;;;;5052156;28;20190;-85
2022/11/21 02:49:38;;;;;;;5.78;1.52;;;8.70;99.90;;;;;;5031900;28;20212;-81
2022/11/21 02:52:18;;;;;;;8.68;1.70;;;9.00;99.90;;;;;;5035543;28;20224;-79
2022/11/21 02:54:47;;;;;;;5.25;1.98;;;8.80;99.90;;;;;;5035394;28;20176;-85
2022/11/21 02:57:13;;;;;;;3.38;1.50;;;8.80;99.90;;;;;;5031244;28;20478;-88
2022/11/21 02:59:38;;;;;;;6.88;1.92;;;8.80;99.90;;;;;;5031670;28;20183;-82
2022/11/21 03:02:04;;;;;;;3.60;1.65;;;8.70;99.90;;;;;;5028598;28;20173;-95
2022/11/21 03:04:33;;;;;;;3.63;1.80;;;8.70;99.90;;;;;;5027653;28;20175;-95
2022/11/21 03:06:58;;;;;;;8.55;2.10;;;8.80;99.90;;;;;;5034214;28;20207;-96
2022/11/21 03:09:24;;;;;;;4.03;1.77;;;8.60;99.90;;;;;;5032324;28;20205;-79
2022/11/21 03:11:50;;;;;;;4.40;1.50;;;8.60;99.90;;;;;;5015794;28;20240;-95
2022/11/21 03:14:16;;;;;;;4.60;1.60;;;8.60;99.90;;;;;;5033091;28;20169;-93
2022/11/21 03:16:43;;;;;;;5.28;1.88;;;8.60;99.90;;;;;;5032490;28;20176;-88
2022/11/21 03:19:08;;;;;;;6.15;2.00;;;8.60;99.90;;;;;;5031376;28;20248;-86
2022/11/21 03:21:34;;;;;;;1.83;1.58;;;8.70;99.90;;;;;;5026904;28;20299;-83
2022/11/21 03:24:00;;;;;;;3.20;1.35;;;8.80;99.90;;;;;;5026689;28;20191;-84
2022/11/21 03:26:25;;;;;;;11.10;2.08;;;8.80;99.90;;;;;;5018257;28;20157;-86
2022/11/21 03:28:54;;;;;;;9.68;1.25;;;8.70;99.90;;;;;;5020052;28;20299;-78
2022/11/21 03:31:19;;;;;;;4.75;1.55;;;8.70;99.90;;;;;;5024752;28;20191;-82
2022/11/21 03:33:45;;;;;;;3.80;1.50;;;8.60;99.90;;;;;;5019436;28;20161;-87
2022/11/21 03:36:10;;;;;;;6.35;1.67;;;8.60;99.90;;;;;;5014652;28;20226;-86
2022/11/21 03:38:36;;;;;;;3.80;1.60;;;8.40;99.90;;;;;;5014611;28;20169;-82
2022/11/21 03:41:04;;;;;;;6.47;1.58;;;8.20;99.90;;;;;;5020783;28;20184;-79
2022/11/21 03:43:30;;;;;;;6.10;1.50;;;8.20;99.90;;;;;;5023202;28;20667;-83
2022/11/21 03:45:55;;;;;;;4.40;1.73;;;8.10;99.90;;;;;;5024912;28;20232;-80
2022/11/21 03:48:21;;;;;;;4.40;1.50;;;8.10;99.90;;;;;;5023556;28;20165;-78
2022/11/21 03:50:48;;;;;;;9.52;1.73;;;8.20;99.90;;;;;;5022737;28;20217;-79
2022/11/21 03:53:13;;;;;;;7.72;1.50;;;8.20;99.90;;;;;;5017136;28;20165;-83
2022/11/21 03:55:39;;;;;;;3.20;1.45;;;8.20;99.90;;;;;;5023256;28;20218;-82
2022/11/21 03:58:04;;;;;;;3.58;1.58;;;8.30;99.90;;;;;;5020218;28;20172;-81
2022/11/21 04:00:30;;;;;;;11.05;2.20;;;8.40;99.90;;;;;;5020354;28;20184;-78
2022/11/21 04:02:56;;;;;;;6.93;1.92;;;8.50;99.90;;;;;;5017257;28;20504;-78
2022/11/21 04:05:21;;;;;;;5.82;1.48;;;8.20;99.90;;;;;;5013574;28;20169;-78
2022/11/21 04:07:47;;;;;;;2.78;1.50;;;8.10;99.90;;;;;;5013747;28;20172;-78
2022/11/21 04:10:12;;;;;;;3.38;1.30;;;8.30;99.90;;;;;;5013703;28;20208;-82
2022/11/21 04:12:38;;;;;;;7.55;1.90;;;8.40;99.90;;;;;;5014105;28;20218;-79
2022/11/21 04:15:04;;;;;;;1.73;1.23;;;8.30;99.90;;;;;;5014034;28;20648;-78
2022/11/21 04:17:30;;;;;;;7.43;1.58;;;8.30;99.90;;;;;;5014447;28;20247;-79
2022/11/21 04:19:56;;;;;;;7.18;1.88;;;8.30;99.90;;;;;;5016950;28;20188;-77
2022/11/21 04:22:21;;;;;;;10.55;1.90;;;8.40;99.90;;;;;;5017970;28;20238;-78
2022/11/21 04:24:47;;;;;;;5.47;1.80;;;8.50;99.90;;;;;;5020069;28;20202;-78
2022/11/21 04:27:13;;;;;;;6.93;1.23;;;8.60;99.90;;;;;;5021005;28;20188;-78
2022/11/21 04:29:39;;;;;;;8.40;1.45;;;8.80;99.90;;;;;;5020044;28;20234;-76
2022/11/21 04:32:04;;;;;;;6.93;1.45;;;8.70;99.90;;;;;;5019177;28;20678;-78
2022/11/21 04:34:30;;;;;;;5.95;1.60;;;8.50;99.90;;;;;;5018832;28;20291;-80
2022/11/21 04:36:55;;;;;;;7.32;1.63;;;8.40;99.90;;;;;;5017670;28;20499;-82
2022/11/21 04:39:21;;;;;;;4.75;1.75;;;8.60;99.90;;;;;;5020879;28;20188;-77
2022/11/21 04:41:47;;;;;;;7.57;2.58;;;8.60;99.90;;;;;;5020008;28;20621;-77
2022/11/21 04:44:12;;;;;;;7.30;2.85;;;8.60;99.90;;;;;;5020976;28;20165;-80
2022/11/21 04:46:38;;;;;;;5.35;1.30;;;8.50;99.90;;;;;;5020708;28;20200;-79
2022/11/21 04:49:03;;;;;;;5.93;1.77;;;8.70;99.90;;;;;;5020713;28;20212;-78
2022/11/21 04:51:32;;;;;;;3.50;1.58;;;8.60;99.90;;;;;;5023994;28;20191;-85
2022/11/21 04:53:59;;;;;;;3.83;1.60;;;8.40;99.90;;;;;;5017389;28;20625;-77
2022/11/21 04:56:24;;;;;;;3.30;1.45;;;8.30;99.90;;;;;;5022715;28;20200;-77
2022/11/21 04:58:52;;;;;;;6.43;1.38;;;8.50;99.90;;;;;;5021876;28;20199;-95
2022/11/21 05:01:21;;;;;;;9.07;2.25;;;8.40;99.90;;;;;;5020878;28;20647;-80
2022/11/21 05:03:49;;;;;;;5.35;1.42;;;8.50;99.90;;;;;;5018890;28;20192;-77
2022/11/21 05:06:18;;;;;;;1.92;1.50;;;8.30;99.90;;;;;;5021065;28;20251;-80
2022/11/21 05:08:43;;;;;;;3.13;1.50;;;8.20;99.90;;;;;;5023904;28;20188;-78
2022/11/21 05:13:53;;;;;;;8.02;1.48;;;8.20;99.90;;;;;;5022163;28;20311;-79
2022/11/21 05:16:19;;;;;;;3.42;1.27;;;8.10;99.90;;;;;;5001237;28;20273;-78
2022/11/21 05:18:44;;;;;;;4.72;1.45;;;7.90;99.90;;;;;;4997521;28;20189;-80
2022/11/21 05:21:10;;;;;;;5.00;2.58;;;8.00;99.90;;;;;;4998456;28;20574;-91
2022/11/21 05:23:36;;;;;;;3.25;2.00;;;7.80;99.90;;;;;;4998477;28;20173;-92
2022/11/21 05:26:01;;;;;;;7.03;2.03;;;7.80;99.90;;;;;;4999279;28;20240;-77
2022/11/21 05:28:27;;;;;;;7.85;1.98;;;7.70;99.90;;;;;;4996751;28;20173;-77
2022/11/21 05:30:52;;;;;;;5.10;1.70;;;7.80;99.90;;;;;;4997754;28;20256;-77
2022/11/21 05:33:19;;;;;;;8.13;1.60;;;7.90;99.90;;;;;;4996618;28;20176;-77
2022/11/21 05:35:44;;;;;;;5.50;1.83;;;7.90;99.90;;;;;;5000116;28;20197;-77
2022/11/21 05:38:10;;;;;;;3.22;1.50;;;8.00;99.90;;;;;;4996958;28;20161;-79
2022/11/21 05:40:36;;;;;;;6.35;2.15;;;8.00;99.90;;;;;;4997202;28;20196;-81
2022/11/21 05:45:48;;;;;;;3.45;2.00;;;7.90;99.90;;;;;;4996686;28;20535;-77
2022/11/21 05:48:14;;;;;;;4.60;1.65;;;7.80;99.90;;;;;;4995342;28;20247;-77
2022/11/21 05:50:40;;;;;;;7.63;1.90;;;7.70;99.90;;;;;;5005168;28;20213;-87
2022/11/21 05:53:05;;;;;;;5.95;1.98;;;7.60;99.90;;;;;;5002987;28;20169;-92
2022/11/21 05:55:33;;;;;;;8.93;2.63;;;7.40;99.90;;;;;;5004157;28;20208;-95
2022/11/21 05:57:59;;;;;;;5.72;1.95;;;7.30;99.90;;;;;;5002242;28;20276;-88
2022/11/21 06:00:26;;;;;;;8.27;2.42;;;7.20;99.90;;;;;;5000326;28;20221;-84
2022/11/21 06:05:36;;;;;;;7.18;1.95;;;7.10;99.90;;;;;;5001751;28;20214;-90
2022/11/21 06:08:01;;;;;;;12.57;2.10;;;7.10;99.90;;;;;;5003303;28;20165;-89
2022/11/21 06:10:27;;;;;;;4.78;2.38;;;7.10;99.90;;;;;;5003837;28;20274;-82
2022/11/21 06:12:52;;;;;;;12.10;2.15;;;7.00;99.90;;;;;;5003338;28;20169;-82
2022/11/21 06:15:18;;;;;;;10.23;2.72;;;6.90;99.90;;;;;;5003465;28;20720;-87
2022/11/21 06:17:43;;;;;;;6.55;2.08;;;7.00;99.90;;;;;;4999044;28;20236;-82
2022/11/21 06:20:09;;;;;;;4.80;2.40;;;7.00;99.90;;;;;;5005081;28;20193;-82
2022/11/21 06:22:35;;;;;;;12.45;2.72;;;7.10;99.90;;;;;;4996486;28;20172;-81
2022/11/21 06:25:00;;;;;;;3.88;2.00;;;7.00;99.90;;;;;;4995792;28;20519;-84
2022/11/21 06:27:28;;;;;;;3.05;2.30;;;6.70;99.90;;;;;;4996622;28;20174;-89
2022/11/21 06:29:53;;;;;;;5.50;2.13;;;6.80;99.90;;;;;;5003750;23;20214;-85
2022/11/21 06:32:19;;;;;;;11.57;2.42;;;6.80;99.90;;;;;;4974579;28;20176;-80
2022/11/21 06:34:44;;;;;;;3.50;2.10;;;6.80;99.90;;;;;;4973214;28;20170;-82
2022/11/21 06:37:10;;;;;;;6.90;2.67;;;6.70;99.90;;;;;;4974499;28;20619;-85
2022/11/21 06:39:36;;;;;;;6.03;2.15;;;6.80;99.90;;;;;;4974070;28;20186;-82
2022/11/21 06:42:01;;;;;;;4.72;1.83;;;6.90;99.90;;;;;;4973944;28;20170;-84
2022/11/21 06:44:27;;;;;;;12.88;1.95;;;6.80;99.90;;;;;;4974581;28;20241;-84
2022/11/21 06:46:52;;;;;;;10.48;3.10;;;6.90;99.90;;;;;;4974719;28;20256;-84
2022/11/21 06:49:18;;;;;;;8.70;2.60;;;6.90;99.90;;;;;;4973775;28;20198;-82
2022/11/21 06:51:43;;;;;;;14.70;2.58;;;6.90;99.90;;;;;;4973873;28;20166;-80
2022/11/21 06:54:09;;;;;;;6.90;2.53;;;6.80;99.90;;;;;;4973649;28;20218;-81
2022/11/21 06:56:35;;;;;;;13.15;2.33;;;6.80;99.90;;;;;;4973511;28;20178;-82
2022/11/21 06:59:00;;;;;;;7.97;1.80;;;6.90;99.90;;;;;;4973337;28;20550;-81
2022/11/21 07:01:27;;;;;;;11.75;1.95;;;7.00;99.90;;;;;;4973532;28;20178;-81
2022/11/21 07:03:53;;;;;;;13.63;1.67;;;7.00;99.90;;;;;;4973908;28;20638;-82
2022/11/21 07:06:18;;;;;;;7.57;2.97;;;7.00;99.90;;;;;;4973389;28;20166;-82
2022/11/21 07:08:44;;;;;;;7.00;2.30;;;6.80;99.90;;;;;;4973532;28;20552;-80
2022/11/21 07:11:12;;;;;;;3.88;2.20;;;6.80;99.90;;;;;;4973269;28;20650;-80
2022/11/21 07:13:37;;;;;;;2.58;1.88;;;6.90;99.90;;;;;;4973694;28;20241;-80
2022/11/21 07:16:05;;;;;;;8.65;2.38;;;6.80;99.90;;;;;;4973670;28;20634;-82
2022/11/21 07:18:31;;;;;;;8.57;2.20;;;6.90;99.90;;;;;;4967279;28;20627;-82
2022/11/21 07:21:01;;;;;;;5.07;1.85;;;6.90;99.90;;;;;;4959568;28;20173;-82
2022/11/21 07:23:28;;;;;;;5.28;1.73;;;7.00;99.90;;;;;;4970115;28;20519;-81
2022/11/21 07:25:53;;;;;;;4.72;2.15;;;7.00;99.90;;;;;;4971912;28;20635;-84
2022/11/21 07:28:20;;;;;;;10.13;2.95;;;7.10;99.90;;;;;;4972088;28;20189;-81
2022/11/21 07:30:46;;;;;;;23.17;3.40;;;7.00;99.90;;;;;;4971771;28;20213;-81
2022/11/21 07:33:11;;;;;;;9.75;3.20;;;6.90;99.90;;;;;;4972143;28;20260;-82
2022/11/21 07:35:37;;;;;;;15.55;3.40;;;6.90;99.90;;;;;;4972028;28;20690;-84
2022/11/21 07:38:03;;;;;;;9.75;2.65;;;7.00;99.90;;;;;;4972567;28;20181;-82
2022/11/21 07:40:31;;;;;;;10.80;2.28;;;7.00;99.90;;;;;;4973557;28;20221;-81
2022/11/21 07:43:03;;;;;;;13.85;2.55;;;6.80;99.90;;;;;;4973845;28;20166;-84
2022/11/21 07:45:28;;;;;;;11.27;3.08;;;6.80;99.90;;;;;;4973897;28;20199;-79
2022/11/21 07:48:03;;;;;;;4.22;2.80;;;6.70;99.90;;;;;;4973477;28;20197;-81
2022/11/21 07:50:29;;;;;;;15.15;3.10;;;6.70;99.90;;;;;;4973140;28;20217;-81
2022/11/21 07:52:59;;;;;;;9.15;2.35;;;6.70;99.90;;;;;;4974736;28;20162;-81
2022/11/21 07:55:25;;;;;;;14.25;2.97;;;6.70;99.90;;;;;;4977341;28;20298;-82
2022/11/21 07:58:01;;;;;;;9.30;2.85;;;6.80;99.90;;;;;;4973230;28;20192;-82
2022/11/21 08:00:27;;;;;;;10.07;2.90;;;6.90;99.90;;;;;;4975232;28;20197;-82
2022/11/21 08:02:53;;;;;;;11.45;3.33;;;7.10;99.90;;;;;;4976629;28;20154;-81
2022/11/21 08:05:18;;;;;;;9.90;2.80;;;7.00;99.90;;;;;;4975241;28;20971;-84
2022/11/21 08:07:44;;;;;;;8.40;3.65;;;7.00;99.90;;;;;;4976243;28;20170;-85
2022/11/21 08:10:10;;;;;;;10.32;3.63;;;7.10;99.90;;;;;;4976081;28;20220;-83
2022/11/21 08:12:35;;;;;;;18.90;3.28;;;7.30;99.90;;;;;;4976386;28;20176;-82
2022/11/21 08:15:01;;;;;;;10.27;3.85;;;7.30;99.90;;;;;;4974397;28;20180;-79
2022/11/21 08:17:26;;;;;;;12.35;3.85;;;7.10;99.90;;;;;;4974906;28;20185;-82
2022/11/21 08:19:52;;;;;;;9.35;4.30;;;7.20;99.90;;;;;;4976219;28;20190;-81
2022/11/21 08:22:17;;;;;;;6.00;3.00;;;7.40;99.90;;;;;;4976383;28;20186;-83
2022/11/21 08:24:43;;;;;;;6.57;3.35;;;7.50;99.90;;;;;;4976056;28;20180;-82
2022/11/21 08:27:09;;;;;;;5.63;3.28;;;7.70;99.90;;;;;;4975171;28;20186;-81
2022/11/21 08:29:34;;;;;;;13.02;4.00;;;7.70;99.90;;;;;;4975670;28;20201;-83
2022/11/21 08:32:00;;;;;;;23.48;5.10;;;7.70;99.90;;;;;;4976438;28;20240;-80
2022/11/21 08:34:26;;;;;;;14.48;5.30;;;7.70;99.90;;;;;;4976389;28;20177;-82
2022/11/21 08:36:52;;;;;;;10.45;4.22;;;7.80;99.90;;;;;;4974625;28;20718;-81
2022/11/21 08:39:18;;;;;;;9.60;4.22;;;8.10;99.90;;;;;;4975055;28;20186;-83
2022/11/21 08:42:01;;;;;;;12.98;5.65;;;8.10;99.90;;;;;;4976486;28;20552;-82
2022/11/21 08:44:28;;;;;;;13.25;3.95;;;8.00;99.90;;;;;;4976170;28;20177;-82
2022/11/21 08:46:54;;;;;;;16.90;4.57;;;8.10;99.90;;;;;;4974841;28;20209;-81
2022/11/21 08:49:20;;;;;;;11.15;4.03;;;8.10;99.90;;;;;;4974716;28;20246;-81
2022/11/21 08:51:48;;;;;;;23.30;4.05;;;8.10;99.90;;;;;;4974677;28;20208;-81
2022/11/21 08:54:22;;;;;;;12.05;3.78;;;8.10;99.90;;;;;;4974266;28;20174;-82
2022/11/21 08:56:48;;;;;;;15.10;3.75;;;8.10;99.90;;;;;;4969343;28;20232;-81
2022/11/21 08:59:15;;;;;;;18.30;4.22;;;8.10;99.90;;;;;;4968935;28;20186;-82
2022/11/21 09:01:40;;;;;;;9.27;3.85;;;8.10;99.90;;;;;;4971074;28;20340;-80
2022/11/21 09:04:06;;;;;;;12.23;3.28;;;8.10;99.90;;;;;;4973744;28;20305;-81
2022/11/21 09:06:32;;;;;;;8.30;3.72;;;8.10;99.90;;;;;;4974745;28;20550;-85
2022/11/21 09:08:58;;;;;;;8.70;3.53;;;8.30;99.90;;;;;;4974610;28;20197;-81
2022/11/21 09:11:24;;;;;;;7.78;3.50;;;8.50;99.90;;;;;;4973063;28;20213;-84
2022/11/21 09:19:22;;;;;;;13.77;3.45;;;8.80;99.90;;;;;;4971899;28;20240;-83
2022/11/21 09:21:49;;;;;;;15.98;3.55;;;8.90;99.90;;;;;;4971638;28;20178;-82
2022/11/21 09:24:15;;;;;;;12.95;3.33;;;9.00;99.90;;;;;;4973712;28;20178;-83
2022/11/21 09:26:40;;;;;;;11.90;3.35;;;9.20;99.90;;;;;;4973371;28;20173;-81
2022/11/21 09:29:06;;;;;;;7.35;3.28;;;9.30;99.90;;;;;;4974120;28;20193;-84
2022/11/21 09:31:31;;;;;;;10.57;2.92;;;9.30;99.90;;;;;;4973086;28;20189;-83
2022/11/21 09:33:57;;;;;;;5.82;3.60;;;9.40;99.90;;;;;;4972087;28;20517;-81
2022/11/21 09:36:23;;;;;;;12.98;2.95;;;9.30;99.90;;;;;;4974182;28;20174;-81
2022/11/21 09:38:51;;;;;;;11.45;2.97;;;9.60;99.90;;;;;;4974284;28;20198;-81
2022/11/21 09:44:44;;;;;;;11.93;2.58;;;9.50;99.90;;;;;;4975714;28;20224;-83
2022/11/21 09:47:19;;;;;;;4.90;2.30;;;9.30;99.90;;;;;;4973781;28;20205;-80
2022/11/21 09:49:51;;;;;;;10.13;2.67;;;9.30;99.90;;;;;;4974223;28;20201;-80
2022/11/21 09:52:21;;;;;;;7.45;2.30;;;9.30;99.90;;;;;;4974096;28;20188;-79
2022/11/21 09:54:51;;;;;;;18.63;2.55;;;9.30;99.90;;;;;;4973792;28;20269;-82
2022/11/21 09:57:21;;;;;;;14.63;3.45;;;9.50;99.90;;;;;;4973319;28;20170;-81
2022/11/21 09:59:47;;;;;;;14.52;2.42;;;9.50;99.90;;;;;;4974612;28;20312;-80
2022/11/21 10:02:16;;;;;;;12.10;3.30;;;9.40;99.90;;;;;;4974974;28;20201;-79
2022/11/21 10:04:43;;;;;;;4.20;2.40;;;9.60;99.90;;;;;;4973033;28;20269;-82
2022/11/21 10:07:24;;;;;;;8.02;3.03;;;9.70;99.90;;;;;;4989731;28;20257;-80
2022/11/21 10:10:11;;;;;;;4.47;2.70;;;9.60;99.90;;;;;;4971110;28;20201;-81
2022/11/21 10:12:46;;;;;;;4.18;2.58;;;9.70;99.90;;;;;;4955409;29;20179;-80
2022/11/21 10:15:49;;;;;;;9.05;2.80;;;9.70;99.90;;;;;;4954662;28;20550;-84
2022/11/21 10:18:20;;;;;;;9.07;4.03;;;9.60;99.90;;;;;;4955169;29;20178;-84
2022/11/21 10:21:00;;;;;;;7.82;3.55;;;9.70;99.90;;;;;;4965240;28;20648;-78
2022/11/21 10:23:58;;;;;;;16.38;4.18;;;9.70;99.90;;;;;;4973526;28;20196;-83
2022/11/21 10:26:53;;;;;;;6.80;3.53;;;9.60;99.90;;;;;;4977349;28;20193;-81
2022/11/21 10:29:25;;;;;;;7.68;4.07;;;9.50;99.90;;;;;;4974206;28;20197;-83
2022/11/21 10:31:56;;;;;;;7.20;4.65;;;9.40;99.90;;;;;;4974473;28;20180;-85
2022/11/21 10:34:28;;;;;;;7.80;4.15;;;9.50;99.90;;;;;;4975156;28;20176;-84
2022/11/21 10:36:59;;;;;;;19.58;5.45;;;9.50;99.90;;;;;;4974217;28;20188;-82
2022/11/21 10:39:43;;;;;;;21.20;5.05;;;9.40;99.90;;;;;;4973763;28;20193;-80
2022/11/21 10:42:37;;;;;;;21.27;6.03;;;9.40;99.90;;;;;;4974373;28;20217;-81
2022/11/21 10:45:17;;;;;;;10.65;5.38;;;9.60;99.90;;;;;;4974165;28;20233;-79
2022/11/21 10:47:48;;;;;;;24.30;6.90;;;9.70;99.90;;;;;;4973855;28;20161;-81
2022/11/21 10:50:38;;;;;;;11.65;6.90;;;9.50;99.90;;;;;;4972922;28;20272;-81
2022/11/21 10:56:07;;;;;;;13.48;5.72;;;9.40;99.90;;;;;;4974353;28;20188;-80
2022/11/21 10:58:47;;;;;;;14.93;6.20;;;9.30;99.90;;;;;;4974008;28;20693;-78
2022/11/21 11:01:21;;;;;;;29.55;6.55;;;9.10;99.90;;;;;;4973887;28;20174;-80
2022/11/21 11:04:03;;;;;;;13.10;5.53;;;9.40;99.90;;;;;;4974072;28;20252;-79
2022/11/21 11:06:29;;;;;;;21.58;7.85;;;9.60;99.90;;;;;;4973996;28;20273;-82
2022/11/21 11:08:54;;;;;;;9.93;5.93;;;9.80;99.90;;;;;;4973930;28;20657;-82
2022/11/21 11:11:22;;;;;;;15.55;5.95;;;9.80;99.90;;;;;;4973880;28;20309;-81
2022/11/21 11:13:58;;;;;;;12.07;6.43;;;9.50;99.90;;;;;;4988756;28;20253;-82
2022/11/21 11:16:26;;;;;;;7.93;5.72;;;9.60;99.90;;;;;;4973787;28;20170;-82
2022/11/21 11:19:19;;;;;;;14.00;5.65;;;9.90;99.90;;;;;;4973633;28;20197;-82
2022/11/21 11:21:46;;;;;;;19.20;5.03;;;9.90;99.90;;;;;;4974015;28;20170;-83
2022/11/21 11:24:12;;;;;;;17.23;5.28;;;10.10;99.90;;;;;;4978871;28;20197;-83
2022/11/21 11:26:46;;;;;;;14.43;5.07;;;10.20;99.90;;;;;;4977393;28;20617;-80
2022/11/21 11:29:17;;;;;;;5.63;4.43;;;10.10;99.90;;;;;;4976296;28;20193;-82
2022/11/21 11:32:14;;;;;;;12.20;5.63;;;10.20;99.90;;;;;;4976791;28;20240;-84
2022/11/21 11:34:59;;;;;;;20.52;4.43;;;10.30;99.90;;;;;;4973685;28;20198;-81
2022/11/21 11:37:34;;;;;;;13.13;4.60;;;10.50;99.90;;;;;;4958590;29;20174;-83
2022/11/21 11:40:35;;;;;;;15.65;4.43;;;10.40;99.90;;;;;;4957734;29;20541;-84
2022/11/21 11:47:29;;;;;;;19.40;6.35;;;10.20;99.90;;;;;;4958989;29;20222;-81
2022/11/21 11:52:32;;;;;;;8.15;4.68;;;10.50;99.90;;;;;;4960084;29;20234;-83
2022/11/21 11:55:04;;;;;;;7.30;4.38;;;10.20;99.90;;;;;;4958306;29;20533;-82
2022/11/21 11:57:30;;;;;;;5.32;4.10;;;10.10;99.90;;;;;;4959043;28;20580;-79
2022/11/21 12:00:19;;;;;;;11.93;3.92;;;10.30;99.90;;;;;;4975503;28;20692;-80
2022/11/21 12:03:19;;;;;;;11.98;4.78;;;10.20;99.90;;;;;;4976216;28;20260;-82
2022/11/21 12:06:01;;;;;;;8.82;4.00;;;10.20;99.90;;;;;;4973943;28;20184;-83
2022/11/21 12:08:58;;;;;;;11.95;3.83;;;10.40;99.90;;;;;;4976825;28;20552;-81
2022/11/21 12:12:26;;;;;;;7.45;4.45;;;10.40;99.90;;;;;;4977118;28;20608;-80
2022/11/21 12:17:48;;;;;;;13.88;4.90;;;10.60;99.90;;;;;;4976845;28;20244;-82
2022/11/21 12:20:19;;;;;;;8.25;4.18;;;10.60;99.90;;;;;;4976494;28;20185;-84
2022/11/21 12:22:47;;;;;;;13.43;4.63;;;10.60;99.90;;;;;;4977026;28;20170;-82
2022/11/21 12:25:13;;;;;;;6.38;4.20;;;10.60;99.90;;;;;;4977002;28;20212;-81
2022/11/21 12:27:45;;;;;;;11.07;4.20;;;10.80;99.90;;;;;;4975446;28;20513;-81
2022/11/21 12:30:42;;;;;;;16.50;4.55;;;10.60;99.90;;;;;;5019492;23;20311;-85
2022/11/21 12:33:23;;;;;;;10.52;4.32;;;10.80;99.90;;;;;;5025740;28;20176;-91
2022/11/21 12:36:12;;;;;;;23.67;5.15;;;10.90;99.90;;;;;;5037662;28;20172;-79
2022/11/21 12:45:04;;;;;;;15.43;3.97;;;10.80;99.90;;;;;;5019131;28;20160;-76
2022/11/21 12:54:34;;;;;;;9.55;4.13;;;10.70;99.90;;;;;;5014861;28;20172;-82
2022/11/21 12:57:08;;;;;;;13.00;4.03;;;10.80;99.90;;;;;;5014051;28;20181;-85
2022/11/21 13:00:07;;;;;;;4.78;3.40;;;10.80;99.90;;;;;;5006576;28;20755;-85
2022/11/21 13:02:49;;;;;;;13.15;4.13;;;10.80;99.90;;;;;;4997651;28;20245;-92
2022/11/21 13:05:45;;;;;;;17.02;3.70;;;11.00;99.90;;;;;;5000482;28;20165;-90
2022/11/21 13:08:15;;;;;;;13.80;4.43;;;10.70;99.90;;;;;;4991056;28;20332;-91
2022/11/21 13:10:48;;;;;;;14.35;3.72;;;10.70;99.90;;;;;;4991559;28;20288;-85
2022/11/21 13:13:32;;;;;;;15.27;3.97;;;10.70;99.90;;;;;;4983334;28;20166;-89
2022/11/21 13:16:35;;;;;;;15.07;3.38;;;10.80;99.90;;;;;;4989956;28;20204;-78
2022/11/21 13:19:18;;;;;;;12.63;3.63;;;10.90;99.90;;;;;;5000364;28;20275;-92
2022/11/21 13:21:49;;;;;;;6.10;3.47;;;11.00;99.90;;;;;;4999555;28;20196;-93
2022/11/21 13:24:48;;;;;;;10.30;3.78;;;10.90;99.90;;;;;;4995432;28;20639;-94
2022/11/21 13:27:39;;;;;;;11.52;3.72;;;10.80;99.90;;;;;;4991480;28;20243;-94
2022/11/21 13:30:10;;;;;;;9.88;3.28;;;10.80;99.90;;;;;;4999630;28;20289;-95
2022/11/21 13:32:46;;;;;;;17.45;4.03;;;10.90;99.90;;;;;;4999167;28;20482;-95
2022/11/21 13:35:18;;;;;;;6.22;3.05;;;10.90;99.90;;;;;;4997462;28;20227;-93
2022/11/21 13:38:05;;;;;;;14.52;3.30;;;11.00;99.90;;;;;;4988282;28;20181;-94
2022/11/21 13:42:56;;;;;;;4.03;2.80;;;11.00;99.90;;;;;;4979999;28;20268;-83
2022/11/21 13:43:46;;;;;;;10.13;2.85;;;11.00;99.90;;;;;;4987889;28;20241;-93
2022/11/21 13:46:50;;;;;;;2.70;2.08;;;11.00;99.90;;;;;;4983754;28;20197;-84
2022/11/21 13:49:20;;;;;;;10.40;3.00;;;11.00;99.90;;;;;;4990168;28;20209;-79
2022/11/21 13:51:51;;;;;;;9.02;2.38;;;10.90;99.90;;;;;;4975109;28;20256;-84
2022/11/21 13:54:31;;;;;;;13.02;3.55;;;10.70;99.90;;;;;;4977648;28;20162;-91